sensor_id;sensor_type;location;lat;lon;timestamp;pressure;altitude;pressure_sealevel;temperature
33267;BMP180;19638;49.080;11.896;2023-04-15T00:03:28;95158.00;;;7.90
33267;BMP180;19638;49.080;11.896;2023-04-15T00:07:35;95152.00;;;7.80
33267;BMP180;19638;49.080;11.896;2023-04-15T00:11:41;95143.00;;;7.90
33267;BMP180;19638;49.080;11.896;2023-04-15T00:15:45;95142.00;;;7.90
33267;BMP180;19638;49.080;11.896;2023-04-15T00:19:49;95137.00;;;7.90
33267;BMP180;19638;49.080;11.896;2023-04-15T00:23:54;95141.00;;;7.90
33267;BMP180;19638;49.080;11.896;2023-04-15T00:28:00;95130.00;;;7.90
33267;BMP180;19638;49.080;11.896;2023-04-15T00:32:06;95131.00;;;8.00
33267;BMP180;19638;49.080;11.896;2023-04-15T00:36:12;95131.00;;;8.00
33267;BMP180;19638;49.080;11.896;2023-04-15T00:40:18;95119.00;;;8.00
33267;BMP180;19638;49.080;11.896;2023-04-15T00:44:21;95109.00;;;7.90
33267;BMP180;19638;49.080;11.896;2023-04-15T00:48:28;95105.00;;;7.90
33267;BMP180;19638;49.080;11.896;2023-04-15T00:52:32;95106.00;;;7.90
33267;BMP180;19638;49.080;11.896;2023-04-15T00:56:39;95103.00;;;7.90
33267;BMP180;19638;49.080;11.896;2023-04-15T01:00:44;95106.00;;;7.90
33267;BMP180;19638;49.080;11.896;2023-04-15T01:04:51;95115.00;;;7.90
33267;BMP180;19638;49.080;11.896;2023-04-15T01:08:54;95097.00;;;7.90
33267;BMP180;19638;49.080;11.896;2023-04-15T01:13:04;95108.00;;;7.90
33267;BMP180;19638;49.080;11.896;2023-04-15T01:17:08;95106.00;;;7.90
33267;BMP180;19638;49.080;11.896;2023-04-15T01:21:12;95112.00;;;7.90
33267;BMP180;19638;49.080;11.896;2023-04-15T01:25:18;95103.00;;;8.00
33267;BMP180;19638;49.080;11.896;2023-04-15T01:29:22;95096.00;;;8.00
33267;BMP180;19638;49.080;11.896;2023-04-15T01:33:25;95093.00;;;8.00
33267;BMP180;19638;49.080;11.896;2023-04-15T01:37:28;95097.00;;;8.00
33267;BMP180;19638;49.080;11.896;2023-04-15T01:41:32;95100.00;;;8.00
33267;BMP180;19638;49.080;11.896;2023-04-15T01:45:37;95107.00;;;8.10
33267;BMP180;19638;49.080;11.896;2023-04-15T01:49:40;95110.00;;;8.10
33267;BMP180;19638;49.080;11.896;2023-04-15T01:53:47;95099.00;;;8.10
33267;BMP180;19638;49.080;11.896;2023-04-15T01:57:51;95100.00;;;8.10
33267;BMP180;19638;49.080;11.896;2023-04-15T02:01:59;95106.00;;;8.10
33267;BMP180;19638;49.080;11.896;2023-04-15T02:06:04;95088.00;;;8.10
33267;BMP180;19638;49.080;11.896;2023-04-15T02:10:13;95102.00;;;8.10
33267;BMP180;19638;49.080;11.896;2023-04-15T02:14:17;95095.00;;;8.10
33267;BMP180;19638;49.080;11.896;2023-04-15T02:18:22;95094.00;;;8.10
33267;BMP180;19638;49.080;11.896;2023-04-15T02:22:25;95096.00;;;8.10
33267;BMP180;19638;49.080;11.896;2023-04-15T02:26:28;95088.00;;;8.10
33267;BMP180;19638;49.080;11.896;2023-04-15T02:30:36;95094.00;;;8.10
33267;BMP180;19638;49.080;11.896;2023-04-15T02:34:43;95087.00;;;8.10
33267;BMP180;19638;49.080;11.896;2023-04-15T02:38:48;95102.00;;;8.10
33267;BMP180;19638;49.080;11.896;2023-04-15T02:42:52;95089.00;;;8.00
33267;BMP180;19638;49.080;11.896;2023-04-15T02:46:56;95085.00;;;8.00
33267;BMP180;19638;49.080;11.896;2023-04-15T02:51:12;95089.00;;;7.90
33267;BMP180;19638;49.080;11.896;2023-04-15T02:55:16;95093.00;;;7.80
33267;BMP180;19638;49.080;11.896;2023-04-15T02:59:21;95089.00;;;7.80
33267;BMP180;19638;49.080;11.896;2023-04-15T03:03:25;95086.00;;;7.80
33267;BMP180;19638;49.080;11.896;2023-04-15T03:07:30;95092.00;;;7.80
33267;BMP180;19638;49.080;11.896;2023-04-15T03:11:37;95084.00;;;7.70
33267;BMP180;19638;49.080;11.896;2023-04-15T03:15:42;95084.00;;;7.60
33267;BMP180;19638;49.080;11.896;2023-04-15T03:19:52;95087.00;;;7.50
33267;BMP180;19638;49.080;11.896;2023-04-15T03:23:58;95091.00;;;7.50
33267;BMP180;19638;49.080;11.896;2023-04-15T03:28:03;95090.00;;;7.40
33267;BMP180;19638;49.080;11.896;2023-04-15T03:32:08;95091.00;;;7.30
33267;BMP180;19638;49.080;11.896;2023-04-15T03:36:15;95081.00;;;7.30
33267;BMP180;19638;49.080;11.896;2023-04-15T03:40:22;95086.00;;;7.20
33267;BMP180;19638;49.080;11.896;2023-04-15T03:44:29;95088.00;;;7.20
33267;BMP180;19638;49.080;11.896;2023-04-15T03:48:33;95088.00;;;7.10
33267;BMP180;19638;49.080;11.896;2023-04-15T03:52:36;95082.00;;;7.10
33267;BMP180;19638;49.080;11.896;2023-04-15T03:56:47;95081.00;;;7.00
33267;BMP180;19638;49.080;11.896;2023-04-15T04:00:50;95082.00;;;7.00
33267;BMP180;19638;49.080;11.896;2023-04-15T04:04:53;95083.00;;;6.90
33267;BMP180;19638;49.080;11.896;2023-04-15T04:08:59;95079.00;;;6.90
33267;BMP180;19638;49.080;11.896;2023-04-15T04:13:05;95088.00;;;6.90
33267;BMP180;19638;49.080;11.896;2023-04-15T04:17:09;95087.00;;;6.90
33267;BMP180;19638;49.080;11.896;2023-04-15T04:21:12;95086.00;;;6.90
33267;BMP180;19638;49.080;11.896;2023-04-15T04:25:15;95090.00;;;6.80
33267;BMP180;19638;49.080;11.896;2023-04-15T04:29:25;95099.00;;;6.90
33267;BMP180;19638;49.080;11.896;2023-04-15T04:33:31;95098.00;;;6.90
33267;BMP180;19638;49.080;11.896;2023-04-15T04:37:34;95100.00;;;6.90
33267;BMP180;19638;49.080;11.896;2023-04-15T04:41:37;95107.00;;;6.90
33267;BMP180;19638;49.080;11.896;2023-04-15T04:45:42;95108.00;;;6.90
33267;BMP180;19638;49.080;11.896;2023-04-15T04:49:45;95115.00;;;6.90
33267;BMP180;19638;49.080;11.896;2023-04-15T04:53:50;95104.00;;;6.90
33267;BMP180;19638;49.080;11.896;2023-04-15T04:57:56;95107.00;;;6.90
33267;BMP180;19638;49.080;11.896;2023-04-15T05:02:00;95105.00;;;6.90
33267;BMP180;19638;49.080;11.896;2023-04-15T05:06:04;95112.00;;;7.00
33267;BMP180;19638;49.080;11.896;2023-04-15T05:10:12;95116.00;;;7.00
33267;BMP180;19638;49.080;11.896;2023-04-15T05:14:18;95120.00;;;6.90
33267;BMP180;19638;49.080;11.896;2023-04-15T05:18:25;95123.00;;;6.90
33267;BMP180;19638;49.080;11.896;2023-04-15T05:22:31;95125.00;;;6.90
33267;BMP180;19638;49.080;11.896;2023-04-15T05:26:34;95124.00;;;7.00
33267;BMP180;19638;49.080;11.896;2023-04-15T05:30:38;95125.00;;;7.00
33267;BMP180;19638;49.080;11.896;2023-04-15T05:34:44;95123.00;;;7.00
33267;BMP180;19638;49.080;11.896;2023-04-15T05:38:47;95132.00;;;7.00
33267;BMP180;19638;49.080;11.896;2023-04-15T05:42:50;95128.00;;;6.90
33267;BMP180;19638;49.080;11.896;2023-04-15T05:46:54;95120.00;;;6.80
33267;BMP180;19638;49.080;11.896;2023-04-15T05:51:03;95130.00;;;6.80
33267;BMP180;19638;49.080;11.896;2023-04-15T05:55:07;95135.00;;;6.70
33267;BMP180;19638;49.080;11.896;2023-04-15T05:59:15;95133.00;;;6.70
33267;BMP180;19638;49.080;11.896;2023-04-15T06:03:18;95128.00;;;6.60
33267;BMP180;19638;49.080;11.896;2023-04-15T06:07:23;95127.00;;;6.50
33267;BMP180;19638;49.080;11.896;2023-04-15T06:11:26;95128.00;;;6.50
33267;BMP180;19638;49.080;11.896;2023-04-15T06:15:30;95140.00;;;6.50
33267;BMP180;19638;49.080;11.896;2023-04-15T06:19:39;95139.00;;;6.40
33267;BMP180;19638;49.080;11.896;2023-04-15T06:23:44;95134.00;;;6.40
33267;BMP180;19638;49.080;11.896;2023-04-15T06:27:49;95135.00;;;6.50
33267;BMP180;19638;49.080;11.896;2023-04-15T06:31:53;95140.00;;;6.50
33267;BMP180;19638;49.080;11.896;2023-04-15T06:35:59;95133.00;;;6.50
33267;BMP180;19638;49.080;11.896;2023-04-15T06:40:04;95138.00;;;6.50
33267;BMP180;19638;49.080;11.896;2023-04-15T06:44:13;95140.00;;;6.50
33267;BMP180;19638;49.080;11.896;2023-04-15T06:48:23;95151.00;;;6.60
33267;BMP180;19638;49.080;11.896;2023-04-15T06:52:26;95142.00;;;6.60
33267;BMP180;19638;49.080;11.896;2023-04-15T06:56:34;95125.00;;;6.60
33267;BMP180;19638;49.080;11.896;2023-04-15T07:00:40;95133.00;;;6.70
33267;BMP180;19638;49.080;11.896;2023-04-15T07:04:47;95132.00;;;6.80
33267;BMP180;19638;49.080;11.896;2023-04-15T07:08:50;95137.00;;;6.80
33267;BMP180;19638;49.080;11.896;2023-04-15T07:12:55;95133.00;;;6.90
33267;BMP180;19638;49.080;11.896;2023-04-15T07:17:02;95134.00;;;6.90
33267;BMP180;19638;49.080;11.896;2023-04-15T07:21:06;95135.00;;;6.90
33267;BMP180;19638;49.080;11.896;2023-04-15T07:25:09;95149.00;;;7.00
33267;BMP180;19638;49.080;11.896;2023-04-15T07:29:13;95145.00;;;7.00
33267;BMP180;19638;49.080;11.896;2023-04-15T07:33:17;95141.00;;;7.10
33267;BMP180;19638;49.080;11.896;2023-04-15T07:37:20;95144.00;;;7.20
33267;BMP180;19638;49.080;11.896;2023-04-15T07:41:36;95147.00;;;7.30
33267;BMP180;19638;49.080;11.896;2023-04-15T07:45:46;95141.00;;;7.30
33267;BMP180;19638;49.080;11.896;2023-04-15T07:49:51;95135.00;;;7.30
33267;BMP180;19638;49.080;11.896;2023-04-15T07:54:02;95145.00;;;7.40
33267;BMP180;19638;49.080;11.896;2023-04-15T07:58:05;95153.00;;;7.30
33267;BMP180;19638;49.080;11.896;2023-04-15T08:02:11;95159.00;;;7.20
33267;BMP180;19638;49.080;11.896;2023-04-15T08:06:15;95157.00;;;7.20
33267;BMP180;19638;49.080;11.896;2023-04-15T08:10:19;95158.00;;;7.20
33267;BMP180;19638;49.080;11.896;2023-04-15T08:14:23;95158.00;;;7.30
33267;BMP180;19638;49.080;11.896;2023-04-15T08:18:28;95164.00;;;7.40
33267;BMP180;19638;49.080;11.896;2023-04-15T08:22:33;95165.00;;;7.40
33267;BMP180;19638;49.080;11.896;2023-04-15T08:26:40;95173.00;;;7.50
33267;BMP180;19638;49.080;11.896;2023-04-15T08:30:43;95177.00;;;7.50
33267;BMP180;19638;49.080;11.896;2023-04-15T08:34:50;95179.00;;;7.50
33267;BMP180;19638;49.080;11.896;2023-04-15T08:38:53;95168.00;;;7.50
33267;BMP180;19638;49.080;11.896;2023-04-15T08:43:03;95189.00;;;7.50
33267;BMP180;19638;49.080;11.896;2023-04-15T08:47:08;95189.00;;;7.50
33267;BMP180;19638;49.080;11.896;2023-04-15T08:51:13;95193.00;;;7.50
33267;BMP180;19638;49.080;11.896;2023-04-15T08:55:17;95197.00;;;7.50
33267;BMP180;19638;49.080;11.896;2023-04-15T08:59:20;95190.00;;;7.50
33267;BMP180;19638;49.080;11.896;2023-04-15T09:03:24;95192.00;;;7.50
33267;BMP180;19638;49.080;11.896;2023-04-15T09:07:29;95189.00;;;7.60
33267;BMP180;19638;49.080;11.896;2023-04-15T09:11:32;95203.00;;;7.60
33267;BMP180;19638;49.080;11.896;2023-04-15T09:15:38;95196.00;;;7.70
33267;BMP180;19638;49.080;11.896;2023-04-15T09:19:43;95201.00;;;7.80
33267;BMP180;19638;49.080;11.896;2023-04-15T09:23:56;95204.00;;;7.70
33267;BMP180;19638;49.080;11.896;2023-04-15T09:28:00;95201.00;;;7.80
33267;BMP180;19638;49.080;11.896;2023-04-15T09:32:10;95213.00;;;7.70
33267;BMP180;19638;49.080;11.896;2023-04-15T09:36:14;95219.00;;;7.70
33267;BMP180;19638;49.080;11.896;2023-04-15T09:40:32;95221.00;;;7.60
33267;BMP180;19638;49.080;11.896;2023-04-15T09:44:39;95225.00;;;7.60
33267;BMP180;19638;49.080;11.896;2023-04-15T09:48:42;95226.00;;;7.70
33267;BMP180;19638;49.080;11.896;2023-04-15T09:52:47;95224.00;;;7.70
33267;BMP180;19638;49.080;11.896;2023-04-15T09:56:53;95219.00;;;7.70
33267;BMP180;19638;49.080;11.896;2023-04-15T10:00:58;95229.00;;;8.00
33267;BMP180;19638;49.080;11.896;2023-04-15T10:05:02;95229.00;;;8.00
33267;BMP180;19638;49.080;11.896;2023-04-15T10:09:07;95227.00;;;8.10
33267;BMP180;19638;49.080;11.896;2023-04-15T10:13:18;95233.00;;;8.10
33267;BMP180;19638;49.080;11.896;2023-04-15T10:17:25;95239.00;;;8.20
33267;BMP180;19638;49.080;11.896;2023-04-15T10:21:32;95236.00;;;8.40
33267;BMP180;19638;49.080;11.896;2023-04-15T10:25:35;95239.00;;;8.40
33267;BMP180;19638;49.080;11.896;2023-04-15T10:29:41;95252.00;;;8.50
33267;BMP180;19638;49.080;11.896;2023-04-15T10:33:47;95250.00;;;8.40
33267;BMP180;19638;49.080;11.896;2023-04-15T10:37:52;95250.00;;;8.40
33267;BMP180;19638;49.080;11.896;2023-04-15T10:42:05;95245.00;;;8.50
33267;BMP180;19638;49.080;11.896;2023-04-15T10:46:10;95243.00;;;8.80
33267;BMP180;19638;49.080;11.896;2023-04-15T10:50:13;95246.00;;;9.30
33267;BMP180;19638;49.080;11.896;2023-04-15T10:54:31;95237.00;;;9.40
33267;BMP180;19638;49.080;11.896;2023-04-15T10:58:43;95240.00;;;9.80
33267;BMP180;19638;49.080;11.896;2023-04-15T11:02:54;95251.00;;;10.60
33267;BMP180;19638;49.080;11.896;2023-04-15T11:07:04;95252.00;;;10.50
33267;BMP180;19638;49.080;11.896;2023-04-15T11:11:10;95254.00;;;10.50
33267;BMP180;19638;49.080;11.896;2023-04-15T11:15:27;95254.00;;;10.80
33267;BMP180;19638;49.080;11.896;2023-04-15T11:19:36;95258.00;;;11.10
33267;BMP180;19638;49.080;11.896;2023-04-15T11:23:42;95261.00;;;11.50
33267;BMP180;19638;49.080;11.896;2023-04-15T11:27:47;95265.00;;;11.80
33267;BMP180;19638;49.080;11.896;2023-04-15T11:31:51;95268.00;;;12.20
33267;BMP180;19638;49.080;11.896;2023-04-15T11:36:03;95276.00;;;12.00
33267;BMP180;19638;49.080;11.896;2023-04-15T11:40:09;95268.00;;;11.80
33267;BMP180;19638;49.080;11.896;2023-04-15T11:44:15;95266.00;;;11.60
33267;BMP180;19638;49.080;11.896;2023-04-15T11:48:20;95279.00;;;11.40
33267;BMP180;19638;49.080;11.896;2023-04-15T11:52:30;95279.00;;;11.00
33267;BMP180;19638;49.080;11.896;2023-04-15T11:56:35;95281.00;;;10.80
33267;BMP180;19638;49.080;11.896;2023-04-15T12:00:40;95288.00;;;10.80
33267;BMP180;19638;49.080;11.896;2023-04-15T12:04:45;95298.00;;;10.70
33267;BMP180;19638;49.080;11.896;2023-04-15T12:09:04;95296.00;;;10.40
33267;BMP180;19638;49.080;11.896;2023-04-15T12:13:09;95303.00;;;10.40
33267;BMP180;19638;49.080;11.896;2023-04-15T12:17:13;95308.00;;;10.70
33267;BMP180;19638;49.080;11.896;2023-04-15T12:21:19;95312.00;;;11.00
33267;BMP180;19638;49.080;11.896;2023-04-15T12:25:35;95315.00;;;10.70
33267;BMP180;19638;49.080;11.896;2023-04-15T12:29:42;95316.00;;;10.60
33267;BMP180;19638;49.080;11.896;2023-04-15T12:33:50;95315.00;;;10.50
33267;BMP180;19638;49.080;11.896;2023-04-15T12:37:53;95334.00;;;10.60
33267;BMP180;19638;49.080;11.896;2023-04-15T12:42:00;95339.00;;;10.40
33267;BMP180;19638;49.080;11.896;2023-04-15T12:46:03;95345.00;;;10.40
33267;BMP180;19638;49.080;11.896;2023-04-15T12:50:11;95340.00;;;10.50
33267;BMP180;19638;49.080;11.896;2023-04-15T12:54:18;95352.00;;;10.40
33267;BMP180;19638;49.080;11.896;2023-04-15T12:58:24;95347.00;;;10.30
33267;BMP180;19638;49.080;11.896;2023-04-15T13:02:30;95361.00;;;10.30
33267;BMP180;19638;49.080;11.896;2023-04-15T13:06:33;95363.00;;;10.20
33267;BMP180;19638;49.080;11.896;2023-04-15T13:10:42;95368.00;;;10.20
33267;BMP180;19638;49.080;11.896;2023-04-15T13:14:51;95375.00;;;10.00
33267;BMP180;19638;49.080;11.896;2023-04-15T13:18:58;95389.00;;;9.70
33267;BMP180;19638;49.080;11.896;2023-04-15T13:23:05;95385.00;;;9.60
33267;BMP180;19638;49.080;11.896;2023-04-15T13:27:08;95391.00;;;9.50
33267;BMP180;19638;49.080;11.896;2023-04-15T13:31:13;95382.00;;;9.50
33267;BMP180;19638;49.080;11.896;2023-04-15T13:35:17;95399.00;;;9.40
33267;BMP180;19638;49.080;11.896;2023-04-15T13:39:25;95397.00;;;9.40
33267;BMP180;19638;49.080;11.896;2023-04-15T13:43:31;95397.00;;;9.40
33267;BMP180;19638;49.080;11.896;2023-04-15T13:47:36;95403.00;;;9.50
33267;BMP180;19638;49.080;11.896;2023-04-15T13:51:39;95402.00;;;9.50
33267;BMP180;19638;49.080;11.896;2023-04-15T13:55:43;95410.00;;;9.60
33267;BMP180;19638;49.080;11.896;2023-04-15T13:59:46;95410.00;;;9.50
33267;BMP180;19638;49.080;11.896;2023-04-15T14:03:53;95423.00;;;9.60
33267;BMP180;19638;49.080;11.896;2023-04-15T14:07:56;95413.00;;;9.70
33267;BMP180;19638;49.080;11.896;2023-04-15T14:12:01;95424.00;;;9.80
33267;BMP180;19638;49.080;11.896;2023-04-15T14:16:08;95426.00;;;9.70
33267;BMP180;19638;49.080;11.896;2023-04-15T14:20:18;95428.00;;;9.80
33267;BMP180;19638;49.080;11.896;2023-04-15T14:24:21;95437.00;;;9.80
33267;BMP180;19638;49.080;11.896;2023-04-15T14:28:28;95443.00;;;9.80
33267;BMP180;19638;49.080;11.896;2023-04-15T14:32:39;95436.00;;;9.80
33267;BMP180;19638;49.080;11.896;2023-04-15T14:36:44;95449.00;;;9.80
33267;BMP180;19638;49.080;11.896;2023-04-15T14:40:47;95449.00;;;9.80
33267;BMP180;19638;49.080;11.896;2023-04-15T14:44:52;95449.00;;;9.70
33267;BMP180;19638;49.080;11.896;2023-04-15T14:48:58;95454.00;;;9.80
33267;BMP180;19638;49.080;11.896;2023-04-15T14:53:05;95469.00;;;9.70
33267;BMP180;19638;49.080;11.896;2023-04-15T14:57:11;95471.00;;;9.80
33267;BMP180;19638;49.080;11.896;2023-04-15T15:01:14;95459.00;;;9.90
33267;BMP180;19638;49.080;11.896;2023-04-15T15:05:18;95474.00;;;10.10
33267;BMP180;19638;49.080;11.896;2023-04-15T15:09:25;95478.00;;;10.20
33267;BMP180;19638;49.080;11.896;2023-04-15T15:13:32;95479.00;;;10.30
33267;BMP180;19638;49.080;11.896;2023-04-15T15:17:38;95483.00;;;10.30
33267;BMP180;19638;49.080;11.896;2023-04-15T15:21:41;95489.00;;;10.20
33267;BMP180;19638;49.080;11.896;2023-04-15T15:25:46;95489.00;;;10.10
33267;BMP180;19638;49.080;11.896;2023-04-15T15:29:51;95495.00;;;10.00
33267;BMP180;19638;49.080;11.896;2023-04-15T15:33:55;95501.00;;;10.00
33267;BMP180;19638;49.080;11.896;2023-04-15T15:38:01;95507.00;;;9.80
33267;BMP180;19638;49.080;11.896;2023-04-15T15:42:06;95509.00;;;9.80
33267;BMP180;19638;49.080;11.896;2023-04-15T15:46:13;95504.00;;;9.80
33267;BMP180;19638;49.080;11.896;2023-04-15T15:50:22;95516.00;;;10.00
33267;BMP180;19638;49.080;11.896;2023-04-15T15:54:26;95518.00;;;10.10
33267;BMP180;19638;49.080;11.896;2023-04-15T15:58:31;95529.00;;;10.30
33267;BMP180;19638;49.080;11.896;2023-04-15T16:02:35;95534.00;;;10.40
33267;BMP180;19638;49.080;11.896;2023-04-15T16:06:42;95537.00;;;10.50
33267;BMP180;19638;49.080;11.896;2023-04-15T16:10:47;95548.00;;;10.50
33267;BMP180;19638;49.080;11.896;2023-04-15T16:14:51;95547.00;;;10.60
33267;BMP180;19638;49.080;11.896;2023-04-15T16:18:57;95556.00;;;10.60
33267;BMP180;19638;49.080;11.896;2023-04-15T16:23:07;95556.00;;;10.60
33267;BMP180;19638;49.080;11.896;2023-04-15T16:27:13;95566.00;;;10.60
33267;BMP180;19638;49.080;11.896;2023-04-15T16:31:21;95568.00;;;10.50
33267;BMP180;19638;49.080;11.896;2023-04-15T16:35:38;95567.00;;;10.40
33267;BMP180;19638;49.080;11.896;2023-04-15T16:39:42;95571.00;;;10.40
33267;BMP180;19638;49.080;11.896;2023-04-15T16:43:48;95580.00;;;10.30
33267;BMP180;19638;49.080;11.896;2023-04-15T16:47:53;95579.00;;;10.20
33267;BMP180;19638;49.080;11.896;2023-04-15T16:51:57;95583.00;;;10.10
33267;BMP180;19638;49.080;11.896;2023-04-15T16:56:00;95584.00;;;10.10
33267;BMP180;19638;49.080;11.896;2023-04-15T17:00:04;95582.00;;;10.10
33267;BMP180;19638;49.080;11.896;2023-04-15T17:04:09;95592.00;;;10.00
33267;BMP180;19638;49.080;11.896;2023-04-15T17:08:13;95591.00;;;10.00
33267;BMP180;19638;49.080;11.896;2023-04-15T17:12:20;95592.00;;;10.00
33267;BMP180;19638;49.080;11.896;2023-04-15T17:16:28;95603.00;;;9.90
33267;BMP180;19638;49.080;11.896;2023-04-15T17:20:32;95604.00;;;9.90
33267;BMP180;19638;49.080;11.896;2023-04-15T17:24:36;95612.00;;;9.80
33267;BMP180;19638;49.080;11.896;2023-04-15T17:28:39;95616.00;;;9.80
33267;BMP180;19638;49.080;11.896;2023-04-15T17:32:42;95627.00;;;9.80
33267;BMP180;19638;49.080;11.896;2023-04-15T17:36:47;95638.00;;;9.70
33267;BMP180;19638;49.080;11.896;2023-04-15T17:40:51;95651.00;;;9.60
33267;BMP180;19638;49.080;11.896;2023-04-15T17:44:57;95645.00;;;9.40
33267;BMP180;19638;49.080;11.896;2023-04-15T17:49:04;95653.00;;;9.30
33267;BMP180;19638;49.080;11.896;2023-04-15T17:53:09;95658.00;;;9.20
33267;BMP180;19638;49.080;11.896;2023-04-15T17:57:12;95655.00;;;9.20
33267;BMP180;19638;49.080;11.896;2023-04-15T18:01:15;95665.00;;;9.20
33267;BMP180;19638;49.080;11.896;2023-04-15T18:05:18;95670.00;;;9.10
33267;BMP180;19638;49.080;11.896;2023-04-15T18:09:23;95676.00;;;9.10
33267;BMP180;19638;49.080;11.896;2023-04-15T18:13:26;95681.00;;;9.20
33267;BMP180;19638;49.080;11.896;2023-04-15T18:17:29;95691.00;;;9.20
33267;BMP180;19638;49.080;11.896;2023-04-15T18:21:35;95692.00;;;9.20
33267;BMP180;19638;49.080;11.896;2023-04-15T18:25:43;95700.00;;;9.20
33267;BMP180;19638;49.080;11.896;2023-04-15T18:29:49;95703.00;;;9.20
33267;BMP180;19638;49.080;11.896;2023-04-15T18:33:57;95708.00;;;9.30
33267;BMP180;19638;49.080;11.896;2023-04-15T18:38:02;95711.00;;;9.30
33267;BMP180;19638;49.080;11.896;2023-04-15T18:42:08;95723.00;;;9.30
33267;BMP180;19638;49.080;11.896;2023-04-15T18:46:11;95729.00;;;9.30
33267;BMP180;19638;49.080;11.896;2023-04-15T18:50:15;95733.00;;;9.30
33267;BMP180;19638;49.080;11.896;2023-04-15T18:54:21;95743.00;;;9.30
33267;BMP180;19638;49.080;11.896;2023-04-15T18:58:25;95748.00;;;9.30
33267;BMP180;19638;49.080;11.896;2023-04-15T19:02:49;95763.00;;;9.30
33267;BMP180;19638;49.080;11.896;2023-04-15T19:06:54;95761.00;;;9.30
33267;BMP180;19638;49.080;11.896;2023-04-15T19:10:57;95770.00;;;9.30
33267;BMP180;19638;49.080;11.896;2023-04-15T19:15:04;95772.00;;;9.30
33267;BMP180;19638;49.080;11.896;2023-04-15T19:19:07;95777.00;;;9.30
33267;BMP180;19638;49.080;11.896;2023-04-15T19:23:13;95781.00;;;9.30
33267;BMP180;19638;49.080;11.896;2023-04-15T19:27:16;95780.00;;;9.30
33267;BMP180;19638;49.080;11.896;2023-04-15T19:31:21;95788.00;;;9.40
33267;BMP180;19638;49.080;11.896;2023-04-15T19:35:26;95793.00;;;9.40
33267;BMP180;19638;49.080;11.896;2023-04-15T19:39:30;95799.00;;;9.40
33267;BMP180;19638;49.080;11.896;2023-04-15T19:43:35;95797.00;;;9.40
33267;BMP180;19638;49.080;11.896;2023-04-15T19:47:40;95798.00;;;9.40
33267;BMP180;19638;49.080;11.896;2023-04-15T19:51:43;95795.00;;;9.40
33267;BMP180;19638;49.080;11.896;2023-04-15T19:55:48;95806.00;;;9.40
33267;BMP180;19638;49.080;11.896;2023-04-15T19:59:56;95801.00;;;9.40
33267;BMP180;19638;49.080;11.896;2023-04-15T20:04:04;95808.00;;;9.30
33267;BMP180;19638;49.080;11.896;2023-04-15T20:08:07;95820.00;;;9.30
33267;BMP180;19638;49.080;11.896;2023-04-15T20:12:10;95812.00;;;9.20
33267;BMP180;19638;49.080;11.896;2023-04-15T20:16:36;95821.00;;;9.20
33267;BMP180;19638;49.080;11.896;2023-04-15T20:20:41;95823.00;;;9.20
33267;BMP180;19638;49.080;11.896;2023-04-15T20:24:44;95824.00;;;9.20
33267;BMP180;19638;49.080;11.896;2023-04-15T20:28:47;95826.00;;;9.20
33267;BMP180;19638;49.080;11.896;2023-04-15T20:32:53;95829.00;;;9.20
33267;BMP180;19638;49.080;11.896;2023-04-15T20:36:59;95827.00;;;9.20
33267;BMP180;19638;49.080;11.896;2023-04-15T20:41:02;95837.00;;;9.10
33267;BMP180;19638;49.080;11.896;2023-04-15T20:45:06;95829.00;;;9.10
33267;BMP180;19638;49.080;11.896;2023-04-15T20:49:11;95838.00;;;9.10
33267;BMP180;19638;49.080;11.896;2023-04-15T20:53:20;95844.00;;;9.00
33267;BMP180;19638;49.080;11.896;2023-04-15T20:57:23;95849.00;;;9.00
33267;BMP180;19638;49.080;11.896;2023-04-15T21:01:28;95844.00;;;9.00
33267;BMP180;19638;49.080;11.896;2023-04-15T21:05:32;95846.00;;;9.00
33267;BMP180;19638;49.080;11.896;2023-04-15T21:09:38;95859.00;;;9.00
33267;BMP180;19638;49.080;11.896;2023-04-15T21:13:44;95852.00;;;9.00
33267;BMP180;19638;49.080;11.896;2023-04-15T21:17:47;95859.00;;;9.00
33267;BMP180;19638;49.080;11.896;2023-04-15T21:21:55;95865.00;;;9.00
33267;BMP180;19638;49.080;11.896;2023-04-15T21:26:01;95874.00;;;9.00
33267;BMP180;19638;49.080;11.896;2023-04-15T21:30:11;95871.00;;;9.00
33267;BMP180;19638;49.080;11.896;2023-04-15T21:34:16;95879.00;;;9.00
33267;BMP180;19638;49.080;11.896;2023-04-15T21:38:19;95884.00;;;9.00
33267;BMP180;19638;49.080;11.896;2023-04-15T21:42:25;95891.00;;;9.00
33267;BMP180;19638;49.080;11.896;2023-04-15T21:46:28;95896.00;;;9.00
33267;BMP180;19638;49.080;11.896;2023-04-15T21:50:36;95892.00;;;9.00
33267;BMP180;19638;49.080;11.896;2023-04-15T21:54:39;95890.00;;;9.00
33267;BMP180;19638;49.080;11.896;2023-04-15T21:58:46;95899.00;;;9.00
33267;BMP180;19638;49.080;11.896;2023-04-15T22:02:50;95907.00;;;9.00
33267;BMP180;19638;49.080;11.896;2023-04-15T22:06:54;95905.00;;;8.90
33267;BMP180;19638;49.080;11.896;2023-04-15T22:11:02;95904.00;;;8.90
33267;BMP180;19638;49.080;11.896;2023-04-15T22:15:07;95913.00;;;8.90
33267;BMP180;19638;49.080;11.896;2023-04-15T22:19:12;95922.00;;;8.90
33267;BMP180;19638;49.080;11.896;2023-04-15T22:23:20;95913.00;;;8.90
33267;BMP180;19638;49.080;11.896;2023-04-15T22:27:23;95917.00;;;9.00
33267;BMP180;19638;49.080;11.896;2023-04-15T22:31:30;95927.00;;;9.00
33267;BMP180;19638;49.080;11.896;2023-04-15T22:35:35;95939.00;;;9.10
33267;BMP180;19638;49.080;11.896;2023-04-15T22:39:38;95934.00;;;9.10
33267;BMP180;19638;49.080;11.896;2023-04-15T22:43:55;95939.00;;;9.10
33267;BMP180;19638;49.080;11.896;2023-04-15T22:48:01;95949.00;;;9.20
33267;BMP180;19638;49.080;11.896;2023-04-15T22:52:06;95945.00;;;9.20
33267;BMP180;19638;49.080;11.896;2023-04-15T22:56:12;95943.00;;;9.30
33267;BMP180;19638;49.080;11.896;2023-04-15T23:00:18;95952.00;;;9.30
33267;BMP180;19638;49.080;11.896;2023-04-15T23:04:29;95950.00;;;9.30
33267;BMP180;19638;49.080;11.896;2023-04-15T23:08:33;95953.00;;;9.30
33267;BMP180;19638;49.080;11.896;2023-04-15T23:12:36;95950.00;;;9.30
33267;BMP180;19638;49.080;11.896;2023-04-15T23:16:42;95955.00;;;9.30
33267;BMP180;19638;49.080;11.896;2023-04-15T23:20:47;95955.00;;;9.30
33267;BMP180;19638;49.080;11.896;2023-04-15T23:24:56;95956.00;;;9.30
33267;BMP180;19638;49.080;11.896;2023-04-15T23:29:03;95966.00;;;9.30
33267;BMP180;19638;49.080;11.896;2023-04-15T23:33:07;95960.00;;;9.30